General Manuel Marquez De Leon International Airport
MMLP : now visible

Airfield :











YOU CAN JOIN US ON...

 
LOGIN :

Register | Disclaimer

   EN    FR    IT 

 









Legend :    VFR   Marginal VFR   IFR   Intensive IFR   Very Intensive IFR
Visi :
Ceiling :
>= 8 km
>= 3000ft
5 to 8 km
1000 to 3000 ft
1500m to 5 km
500 to 1000 ft
800 to 1500m
200 to 500 ft
< 800m
< 200 ft
Symbols :   Thunderstorms  Fog  Heavy snow  Heavy precipitations  Wind > 20 kt







- Airport Elevation : 69 ft
- IATA code : LAP


MMLP - General Manuel Marquez De Leon International

METAR N/A
TAF TAF MMLP
Valid from the 21 at 06:00 until the 22 at 06:00 UTC


210531Z 2106/2206 06020G40KT 5SM RA BKN012CB OVC080
TEMPO 2106/2110 1SM TSRA VV005
FM211400 30020G40KT 2SM TSRA BKN015CB OVC080
TEMPO 2114/2118 1SM TSRA
FM211800 26015G25KT 5SM RA BKN015CB OVC080
TEMPO 2120/2124 2SM TSRA
FM220000 20015KT 5SM RA BKN020CB OVC080
No reported NOTAMs for that airfield.



MET'MAP, your aeronautical weather chart ! - Copyright ORBIFLY December 2007 - Disclaimer

ORBIFLY MET'MAP TEAM :

Programming & Development : Alexandra Zaïnal
Concept & Development : Baudouin d'Aumeries
Co-Development & Prog : Marc-Olivier Méhu
Technical & hardware support : Manuel Goepfert

Contact : metmap@orbifly.com




SOURCES & CREDITS :

   NOAA       Earth
Advisory